Domov               UVHVVR             MKGP            O straneh              
ZDRAVSTVENO VARSTVO RASTLIN
  MREŽA AGROMET. POSTAJ
 ► PROGNOSTIČNA OBVESTILA
AGROMETEOROLOŠKI PODATKI -
ARSO
OBVLADOVANJE TVEGANJ ZARADI
NEUGODNIH VREMENSKIH RAZMER
  ► NARAVNE NESREČE
  ► SUŠA/MOČA
  ► NAMAKANJE
  ► ŽLED (gozdarstvo)
KARTOGRAFSKI PRIKAZI
SPLETNE POVEZAVE
PROJEKTI IN PUBLIKACIJE

AGROMETEOROLOŠKA MREŽA: VREMENSKE POSTAJE IN FENOLOŠKA OPAZOVANJA

Pregled podatkov za lokacijo Brdo, meteorološka postaja 61681

Pregled senzorjev na lokaciji

ID Ime Zadnja
vrednost
Datum
zadnje
spremembe
Tip
senzorja
4245 Temperatura 2 m (°C) 5,18 °C 18.1.2018 20:00 Generic -40 - +60 °C
4246 Relativna vlaga 2 m (% RH) 61,24 % RH 18.1.2018 20:00 Generic 0 - 100 %
4247 Temperatura tal 5 cm (°C) 2,79 °C 18.1.2018 20:00 Generic -20 - +40 °C
4248 Sončno sevanje (W/m2) 0 W/m2 18.1.2018 20:00 Generic 0 - 2000 W/m²
4249 Hitrost vetra (km/h) 6,87 km/h 18.1.2018 20:00 Generic 200 km/h
4250 Smer vetra (°) 164,78 ° 18.1.2018 20:00 Generic 0 - 360
4251 Padavine (mm) 0 mm 18.1.2018 20:00 Generic 0.2 mm

Pregled podatkov zadnjih 24 ur

Zap.
št.
Datum in čas Brdo
Hitrost
vetra
Padavine Relativna
vlaga
2
m
Smer
vetra
Sončno
sevanje
Temperatura
2
m
Temperatura
tal
5
cm
0 18.1.2018 20:00 6,87 0 61,24 164,78 0 5,18 2,79
1 18.1.2018 19:30 4,58 0 63,59 289,93 0 4,46 2,86
2 18.1.2018 19:00 4,35 0 62,55 191,6 0 4,2 2,98
3 18.1.2018 18:30 4,52 0 61,55 226,23 0 4,18 3,12
4 18.1.2018 18:00 8,11 0 57,67 167,92 0 5,03 3,26
5 18.1.2018 17:30 6,36 0 54,96 210,06 0 5,04 3,41
6 18.1.2018 17:00 3,17 0 50,43 253,16 3,94 5,87 3,57
7 18.1.2018 16:30 7,93 0 47,61 265,63 39,92 7,27 3,71
8 18.1.2018 16:00 12,55 0 44,15 197,14 96,53 8,02 3,82
9 18.1.2018 15:30 11,58 0 42,2 159,71 152,93 8,49 3,87
10 18.1.2018 15:00 10,2 0 41,23 186,04 208,59 9,05 3,82
11 18.1.2018 14:30 6,76 0 41,08 200,72 256,53 9,07 3,6
12 18.1.2018 14:00 6,33 0 43,59 275,11 295,96 8,74 3,25
13 18.1.2018 13:30 6,99 0 45,3 235,01 326,85 7,88 2,87
14 18.1.2018 13:00 6,03 0 48,83 218,68 346,93 7,08 2,47
15 18.1.2018 12:30 4,98 0 53,86 180,13 348,27 6,69 2,16
16 18.1.2018 12:00 3,84 0 64,9 256,66 340,55 5,24 2,01
17 18.1.2018 11:30 3,07 0 66,27 198,17 324,01 4,24 1,92
18 18.1.2018 11:00 1,78 0 68,18 161,57 302,07 3,52 1,87
19 18.1.2018 10:30 2,07 0 78,41 184,64 219,24 1,18 1,84
20 18.1.2018 10:00 1,78 0 77,58 173,8 185,18 1,35 1,84
21 18.1.2018 09:30 0,82 0 84,64 144,05 139,89 -0,08 1,83
22 18.1.2018 09:00 0,55 0 94,39 11,23 49,13 -2,41 1,83
23 18.1.2018 08:30 0,2 0 97,59 10,96 15,14 -3,72 1,85
24 18.1.2018 08:00 1,74 0 97,09 10,93 5,55 -3,86 1,88
25 18.1.2018 07:30 1,79 0 97,16 10,94 0 -4,04 1,93
26 18.1.2018 07:00 1,64 0 97,69 10,96 0 -3,85 1,96
27 18.1.2018 06:30 1,84 0 97,61 10,94 0 -4,02 1,99
28 18.1.2018 06:00 1,85 0 93,74 202,89 0 -3,53 2,04
29 18.1.2018 05:30 2,25 0 92,79 340,2 0 -3,25 2,07
30 18.1.2018 05:00 3,25 0 92,46 10,1 0 -3,13 2,14
31 18.1.2018 04:30 3,29 0 91,16 358,69 0 -2,81 2,17
32 18.1.2018 04:00 2,34 0 92,38 13,03 0 -3,02 2,24
33 18.1.2018 03:30 1,13 0 92,42 18,74 0 -3,05 2,3
34 18.1.2018 03:00 0,54 0 91,74 321,05 0 -3,09 2,37
35 18.1.2018 02:30 1,74 0 92,12 242,57 0 -3,02 2,46
36 18.1.2018 02:00 1,35 0 91,49 350,61 0 -2,88 2,55
37 18.1.2018 01:30 1,54 0 90,41 357,27 0 -2,22 2,63
38 18.1.2018 01:00 2,34 0 88,98 348,61 0 -1,13 2,71
39 18.1.2018 00:30 1,01 0 83,78 316,49 0 -0,4 2,77
40 18.1.2018 00:00 0,55 0 85,17 334,95 0 -0,77 2,81
41 17.1.2018 23:30 0,95 0 84,43 349,91 0 -0,56 2,88
42 17.1.2018 23:00 0,9 0 83,06 358,91 0 -0,36 2,95
43 17.1.2018 22:30 2,05 0 81,22 50,04 0 -0,69 3,01
44 17.1.2018 22:00 1,78 0 85,93 5,34 0 -1,41 3,14
45 17.1.2018 21:30 0,3 0 83,27 289,37 0 -1,08 3,28
46 17.1.2018 21:00 0,12 0 80,03 352,1 0 -0,7 3,42
47 17.1.2018 20:30 0,7 0 73,39 62,65 0 0,16 3,59
© 2011 Ministrstvo za kmetijstvo, gozdarstvo in prehrano. Vse pravice pridržane.